sensor_id;sensor_type;location;lat;lon;timestamp;pressure;altitude;pressure_sealevel;temperature;humidity
58843;BME280;44614;54.356;10.100;2023-04-01T00:02:16;99407.66;;;6.33;100.00
58843;BME280;44614;54.356;10.100;2023-04-01T00:04:42;99415.44;;;6.30;100.00
58843;BME280;44614;54.356;10.100;2023-04-01T00:07:08;99411.03;;;6.29;100.00
58843;BME280;44614;54.356;10.100;2023-04-01T00:09:34;99421.34;;;6.27;100.00
58843;BME280;44614;54.356;10.100;2023-04-01T00:12:00;99419.91;;;6.24;100.00
58843;BME280;44614;54.356;10.100;2023-04-01T00:14:26;99360.19;;;5.86;100.00
58843;BME280;44614;54.356;10.100;2023-04-01T00:16:51;99417.06;;;6.19;100.00
58843;BME280;44614;54.356;10.100;2023-04-01T00:19:17;99425.69;;;6.16;100.00
58843;BME280;44614;54.356;10.100;2023-04-01T00:21:43;99423.41;;;6.13;100.00
58843;BME280;44614;54.356;10.100;2023-04-01T00:24:08;99429.94;;;6.12;100.00
58843;BME280;44614;54.356;10.100;2023-04-01T00:26:33;99423.84;;;6.10;100.00
58843;BME280;44614;54.356;10.100;2023-04-01T00:28:59;99413.34;;;5.95;100.00
58843;BME280;44614;54.356;10.100;2023-04-01T00:31:25;99438.63;;;6.02;100.00
58843;BME280;44614;54.356;10.100;2023-04-01T00:33:51;99436.81;;;5.96;100.00
58843;BME280;44614;54.356;10.100;2023-04-01T00:36:19;99445.44;;;5.93;100.00
58843;BME280;44614;54.356;10.100;2023-04-01T00:38:45;99429.97;;;5.87;100.00
58843;BME280;44614;54.356;10.100;2023-04-01T00:41:12;99437.16;;;5.81;100.00
58843;BME280;44614;54.356;10.100;2023-04-01T00:43:42;99444.34;;;5.76;100.00
58843;BME280;44614;54.356;10.100;2023-04-01T00:46:07;99336.13;;;5.09;100.00
58843;BME280;44614;54.356;10.100;2023-04-01T00:48:35;99442.69;;;5.75;100.00
58843;BME280;44614;54.356;10.100;2023-04-01T00:51:10;99443.50;;;5.75;100.00
58843;BME280;44614;54.356;10.100;2023-04-01T00:53:40;99440.19;;;5.73;100.00
58843;BME280;44614;54.356;10.100;2023-04-01T00:56:20;99408.38;;;5.49;100.00
58843;BME280;44614;54.356;10.100;2023-04-01T00:58:50;99447.81;;;5.65;100.00
58843;BME280;44614;54.356;10.100;2023-04-01T01:01:16;99450.38;;;5.59;100.00
58843;BME280;44614;54.356;10.100;2023-04-01T01:03:42;99454.59;;;5.55;100.00
58843;BME280;44614;54.356;10.100;2023-04-01T01:09:14;99460.94;;;5.49;100.00
58843;BME280;44614;54.356;10.100;2023-04-01T01:14:40;99449.50;;;5.41;100.00
58843;BME280;44614;54.356;10.100;2023-04-01T01:17:32;99465.25;;;5.38;100.00
58843;BME280;44614;54.356;10.100;2023-04-01T01:31:44;99463.19;;;5.09;100.00
58843;BME280;44614;54.356;10.100;2023-04-01T01:37:01;99480.19;;;5.04;100.00
58843;BME280;44614;54.356;10.100;2023-04-01T01:39:31;99469.34;;;4.98;100.00
58843;BME280;44614;54.356;10.100;2023-04-01T01:42:03;99475.59;;;4.98;100.00
58843;BME280;44614;54.356;10.100;2023-04-01T01:44:30;99477.72;;;4.96;100.00
58843;BME280;44614;54.356;10.100;2023-04-01T01:46:58;99481.28;;;4.97;100.00
58843;BME280;44614;54.356;10.100;2023-04-01T01:49:26;99471.94;;;4.86;100.00
58843;BME280;44614;54.356;10.100;2023-04-01T01:51:52;99471.94;;;4.86;100.00
58843;BME280;44614;54.356;10.100;2023-04-01T01:54:18;99481.16;;;4.85;100.00
58843;BME280;44614;54.356;10.100;2023-04-01T01:56:46;99480.56;;;4.76;100.00
58843;BME280;44614;54.356;10.100;2023-04-01T01:59:14;99504.00;;;4.77;100.00
58843;BME280;44614;54.356;10.100;2023-04-01T02:01:48;99500.69;;;4.69;100.00
58843;BME280;44614;54.356;10.100;2023-04-01T02:04:15;99505.50;;;4.67;100.00
58843;BME280;44614;54.356;10.100;2023-04-01T02:06:47;99543.16;;;4.70;100.00
58843;BME280;44614;54.356;10.100;2023-04-01T02:09:17;99509.47;;;4.71;100.00
58843;BME280;44614;54.356;10.100;2023-04-01T02:11:51;99524.75;;;4.65;100.00
58843;BME280;44614;54.356;10.100;2023-04-01T02:14:23;99516.59;;;4.65;100.00
58843;BME280;44614;54.356;10.100;2023-04-01T02:17:00;99519.78;;;4.62;100.00
58843;BME280;44614;54.356;10.100;2023-04-01T02:19:34;99497.25;;;4.42;100.00
58843;BME280;44614;54.356;10.100;2023-04-01T02:22:03;99527.72;;;4.57;100.00
58843;BME280;44614;54.356;10.100;2023-04-01T02:24:33;99530.88;;;4.54;100.00
58843;BME280;44614;54.356;10.100;2023-04-01T02:27:00;99542.81;;;4.46;100.00
58843;BME280;44614;54.356;10.100;2023-04-01T02:29:25;99544.09;;;4.44;100.00
58843;BME280;44614;54.356;10.100;2023-04-01T02:31:51;99509.47;;;4.19;100.00
58843;BME280;44614;54.356;10.100;2023-04-01T02:34:19;99551.19;;;4.45;100.00
58843;BME280;44614;54.356;10.100;2023-04-01T02:36:44;99549.97;;;4.40;100.00
58843;BME280;44614;54.356;10.100;2023-04-01T02:39:10;99564.81;;;4.38;100.00
58843;BME280;44614;54.356;10.100;2023-04-01T02:41:40;99545.00;;;4.24;100.00
58843;BME280;44614;54.356;10.100;2023-04-01T02:44:06;99561.28;;;4.31;100.00
58843;BME280;44614;54.356;10.100;2023-04-01T02:46:32;99564.22;;;4.29;100.00
58843;BME280;44614;54.356;10.100;2023-04-01T02:48:57;99567.16;;;4.28;100.00
58843;BME280;44614;54.356;10.100;2023-04-01T02:51:23;99555.66;;;4.19;100.00
58843;BME280;44614;54.356;10.100;2023-04-01T02:53:48;99539.00;;;4.02;100.00
58843;BME280;44614;54.356;10.100;2023-04-01T02:56:13;99579.91;;;4.21;100.00
58843;BME280;44614;54.356;10.100;2023-04-01T02:58:39;99576.78;;;4.17;100.00
58843;BME280;44614;54.356;10.100;2023-04-01T03:01:04;99584.72;;;4.19;100.00
58843;BME280;44614;54.356;10.100;2023-04-01T03:03:29;99594.34;;;4.14;100.00
58843;BME280;44614;54.356;10.100;2023-04-01T03:05:55;99578.47;;;4.11;100.00
58843;BME280;44614;54.356;10.100;2023-04-01T03:08:21;99605.22;;;4.08;100.00
58843;BME280;44614;54.356;10.100;2023-04-01T03:10:47;99601.25;;;4.04;100.00
58843;BME280;44614;54.356;10.100;2023-04-01T03:13:12;99589.34;;;3.98;100.00
58843;BME280;44614;54.356;10.100;2023-04-01T03:15:37;99618.41;;;3.98;100.00
58843;BME280;44614;54.356;10.100;2023-04-01T03:18:03;99608.38;;;3.98;100.00
58843;BME280;44614;54.356;10.100;2023-04-01T03:20:28;99605.03;;;3.96;100.00
58843;BME280;44614;54.356;10.100;2023-04-01T03:22:53;99610.25;;;3.91;100.00
58843;BME280;44614;54.356;10.100;2023-04-01T03:25:19;99615.69;;;3.91;100.00
58843;BME280;44614;54.356;10.100;2023-04-01T03:27:45;99624.47;;;3.86;100.00
58843;BME280;44614;54.356;10.100;2023-04-01T03:30:10;99623.63;;;3.86;100.00
58843;BME280;44614;54.356;10.100;2023-04-01T03:32:35;99628.25;;;3.85;100.00
58843;BME280;44614;54.356;10.100;2023-04-01T03:35:01;99631.56;;;3.81;100.00
58843;BME280;44614;54.356;10.100;2023-04-01T03:37:26;99629.06;;;3.79;100.00
58843;BME280;44614;54.356;10.100;2023-04-01T03:39:51;99637.84;;;3.75;100.00
58843;BME280;44614;54.356;10.100;2023-04-01T03:42:17;99637.84;;;3.75;100.00
58843;BME280;44614;54.356;10.100;2023-04-01T03:44:42;99632.81;;;3.72;100.00
58843;BME280;44614;54.356;10.100;2023-04-01T03:47:07;99649.13;;;3.72;100.00
58843;BME280;44614;54.356;10.100;2023-04-01T03:49:37;99642.44;;;3.67;100.00
58843;BME280;44614;54.356;10.100;2023-04-01T03:52:02;99654.34;;;3.66;100.00
58843;BME280;44614;54.356;10.100;2023-04-01T03:54:28;99653.47;;;3.66;100.00
58843;BME280;44614;54.356;10.100;2023-04-01T03:56:53;99660.78;;;3.65;100.00
58843;BME280;44614;54.356;10.100;2023-04-01T03:59:20;99640.53;;;3.48;100.00
58843;BME280;44614;54.356;10.100;2023-04-01T04:01:46;99664.56;;;3.64;100.00
58843;BME280;44614;54.356;10.100;2023-04-01T04:04:12;99665.78;;;3.62;100.00
58843;BME280;44614;54.356;10.100;2023-04-01T04:06:40;99668.72;;;3.60;100.00
58843;BME280;44614;54.356;10.100;2023-04-01T04:09:05;99687.94;;;3.59;100.00
58843;BME280;44614;54.356;10.100;2023-04-01T04:11:31;99676.22;;;3.58;100.00
58843;BME280;44614;54.356;10.100;2023-04-01T04:13:58;99682.09;;;3.55;100.00
58843;BME280;44614;54.356;10.100;2023-04-01T04:16:23;99678.72;;;3.53;100.00
58843;BME280;44614;54.356;10.100;2023-04-01T04:18:48;99682.50;;;3.52;100.00
58843;BME280;44614;54.356;10.100;2023-04-01T04:21:14;99686.03;;;3.53;100.00
58843;BME280;44614;54.356;10.100;2023-04-01T04:23:40;99691.69;;;3.51;100.00
58843;BME280;44614;54.356;10.100;2023-04-01T04:26:07;99687.72;;;3.54;100.00
58843;BME280;44614;54.356;10.100;2023-04-01T04:28:33;99696.91;;;3.53;100.00
58843;BME280;44614;54.356;10.100;2023-04-01T04:30:59;99696.47;;;3.49;100.00
58843;BME280;44614;54.356;10.100;2023-04-01T04:33:26;99698.78;;;3.52;100.00
58843;BME280;44614;54.356;10.100;2023-04-01T04:35:54;99698.53;;;3.47;100.00
58843;BME280;44614;54.356;10.100;2023-04-01T04:38:20;99710.84;;;3.43;100.00
58843;BME280;44614;54.356;10.100;2023-04-01T04:40:45;99716.09;;;3.45;100.00
58843;BME280;44614;54.356;10.100;2023-04-01T04:43:12;99717.16;;;3.44;100.00
58843;BME280;44614;54.356;10.100;2023-04-01T04:45:38;99716.72;;;3.47;100.00
58843;BME280;44614;54.356;10.100;2023-04-01T04:48:04;99709.63;;;3.46;100.00
58843;BME280;44614;54.356;10.100;2023-04-01T04:50:30;99694.81;;;3.48;100.00
58843;BME280;44614;54.356;10.100;2023-04-01T04:52:55;99716.28;;;3.43;100.00
58843;BME280;44614;54.356;10.100;2023-04-01T04:55:21;99720.88;;;3.42;100.00
58843;BME280;44614;54.356;10.100;2023-04-01T04:57:46;99721.94;;;3.41;100.00
58843;BME280;44614;54.356;10.100;2023-04-01T05:00:12;99726.53;;;3.41;100.00
58843;BME280;44614;54.356;10.100;2023-04-01T05:02:38;99739.00;;;3.35;100.00
58843;BME280;44614;54.356;10.100;2023-04-01T05:05:03;99737.78;;;3.38;100.00
58843;BME280;44614;54.356;10.100;2023-04-01T05:07:29;99736.94;;;3.37;100.00
58843;BME280;44614;54.356;10.100;2023-04-01T05:09:55;99739.22;;;3.34;100.00
58843;BME280;44614;54.356;10.100;2023-04-01T05:12:20;99755.09;;;3.37;100.00
58843;BME280;44614;54.356;10.100;2023-04-01T05:14:45;99746.97;;;3.37;100.00
58843;BME280;44614;54.356;10.100;2023-04-01T05:17:12;99751.75;;;3.35;100.00
58843;BME280;44614;54.356;10.100;2023-04-01T05:19:38;99746.31;;;3.35;100.00
58843;BME280;44614;54.356;10.100;2023-04-01T05:22:04;99754.47;;;3.35;100.00
58843;BME280;44614;54.356;10.100;2023-04-01T05:24:30;99749.44;;;3.32;100.00
58843;BME280;44614;54.356;10.100;2023-04-01T05:26:55;99756.94;;;3.30;100.00
58843;BME280;44614;54.356;10.100;2023-04-01T05:29:22;99772.84;;;3.33;100.00
58843;BME280;44614;54.356;10.100;2023-04-01T05:31:48;99770.13;;;3.33;100.00
58843;BME280;44614;54.356;10.100;2023-04-01T05:34:13;99775.56;;;3.33;100.00
58843;BME280;44614;54.356;10.100;2023-04-01T05:36:38;99783.47;;;3.34;100.00
58843;BME280;44614;54.356;10.100;2023-04-01T05:39:04;99759.28;;;3.33;100.00
58843;BME280;44614;54.356;10.100;2023-04-01T05:41:29;99787.41;;;3.32;100.00
58843;BME280;44614;54.356;10.100;2023-04-01T05:43:54;99785.75;;;3.31;100.00
58843;BME280;44614;54.356;10.100;2023-04-01T05:46:20;99773.44;;;3.28;100.00
58843;BME280;44614;54.356;10.100;2023-04-01T05:48:46;99776.38;;;3.33;100.00
58843;BME280;44614;54.356;10.100;2023-04-01T05:51:13;99791.63;;;3.34;100.00
58843;BME280;44614;54.356;10.100;2023-04-01T05:53:39;99772.59;;;3.28;100.00
58843;BME280;44614;54.356;10.100;2023-04-01T05:56:05;99792.44;;;3.35;100.00
58843;BME280;44614;54.356;10.100;2023-04-01T05:58:31;99795.16;;;3.35;100.00
58843;BME280;44614;54.356;10.100;2023-04-01T06:01:07;99805.59;;;3.31;100.00
58843;BME280;44614;54.356;10.100;2023-04-01T06:03:33;99806.84;;;3.35;100.00
58843;BME280;44614;54.356;10.100;2023-04-01T06:05:59;99812.28;;;3.35;100.00
58843;BME280;44614;54.356;10.100;2023-04-01T06:08:26;99811.66;;;3.33;100.00
58843;BME280;44614;54.356;10.100;2023-04-01T06:24:58;99822.34;;;3.41;100.00
58843;BME280;44614;54.356;10.100;2023-04-01T06:27:40;99826.94;;;3.41;100.00
58843;BME280;44614;54.356;10.100;2023-04-01T06:30:29;99808.25;;;3.18;100.00
58843;BME280;44614;54.356;10.100;2023-04-01T06:41:37;99845.09;;;3.40;100.00
58843;BME280;44614;54.356;10.100;2023-04-01T06:44:16;99870.38;;;3.41;100.00
58843;BME280;44614;54.356;10.100;2023-04-01T06:53:02;99868.94;;;3.45;100.00
58843;BME280;44614;54.356;10.100;2023-04-01T06:55:44;99883.53;;;3.44;100.00
58843;BME280;44614;54.356;10.100;2023-04-01T06:58:34;99878.94;;;3.45;100.00
58843;BME280;44614;54.356;10.100;2023-04-01T07:01:08;99891.47;;;3.46;100.00
58843;BME280;44614;54.356;10.100;2023-04-01T07:03:44;99909.63;;;3.45;100.00
58843;BME280;44614;54.356;10.100;2023-04-01T07:06:30;99892.13;;;3.48;100.00
58843;BME280;44614;54.356;10.100;2023-04-01T07:08:59;99898.13;;;3.43;100.00
58843;BME280;44614;54.356;10.100;2023-04-01T07:11:34;99906.94;;;3.45;100.00
58843;BME280;44614;54.356;10.100;2023-04-01T07:16:51;99916.72;;;3.46;100.00
58843;BME280;44614;54.356;10.100;2023-04-01T07:21:56;99901.72;;;3.44;100.00
58843;BME280;44614;54.356;10.100;2023-04-01T07:24:44;99918.41;;;3.47;100.00
58843;BME280;44614;54.356;10.100;2023-04-01T07:27:11;99925.97;;;3.52;100.00
58843;BME280;44614;54.356;10.100;2023-04-01T07:29:37;99930.78;;;3.56;100.00
58843;BME280;44614;54.356;10.100;2023-04-01T07:45:44;99941.13;;;3.39;100.00
58843;BME280;44614;54.356;10.100;2023-04-01T07:48:53;99953.00;;;3.38;100.00
58843;BME280;44614;54.356;10.100;2023-04-01T07:51:29;99956.41;;;3.19;100.00
58843;BME280;44614;54.356;10.100;2023-04-01T07:54:30;99976.44;;;3.46;100.00
58843;BME280;44614;54.356;10.100;2023-04-01T07:57:08;99980.22;;;3.45;100.00
58843;BME280;44614;54.356;10.100;2023-04-01T08:04:57;99999.75;;;3.34;100.00
58843;BME280;44614;54.356;10.100;2023-04-01T08:07:43;100003.31;;;3.34;100.00
58843;BME280;44614;54.356;10.100;2023-04-01T08:13:20;100001.56;;;3.27;100.00
58843;BME280;44614;54.356;10.100;2023-04-01T08:15:57;100047.94;;;3.32;100.00
58843;BME280;44614;54.356;10.100;2023-04-01T08:18:37;100022.97;;;3.36;100.00
58843;BME280;44614;54.356;10.100;2023-04-01T08:21:10;100024.88;;;3.42;100.00
58843;BME280;44614;54.356;10.100;2023-04-01T08:23:41;100039.94;;;3.45;100.00
58843;BME280;44614;54.356;10.100;2023-04-01T08:26:43;100053.44;;;3.38;100.00
58843;BME280;44614;54.356;10.100;2023-04-01T08:29:21;100049.66;;;3.33;100.00
58843;BME280;44614;54.356;10.100;2023-04-01T08:32:11;100031.88;;;3.30;100.00
58843;BME280;44614;54.356;10.100;2023-04-01T08:34:40;100043.16;;;3.34;100.00
58843;BME280;44614;54.356;10.100;2023-04-01T08:39:42;100056.94;;;3.32;100.00
58843;BME280;44614;54.356;10.100;2023-04-01T08:42:40;100060.28;;;3.34;100.00
58843;BME280;44614;54.356;10.100;2023-04-01T08:45:21;100060.13;;;3.36;100.00
58843;BME280;44614;54.356;10.100;2023-04-01T08:48:15;100067.81;;;3.32;100.00
58843;BME280;44614;54.356;10.100;2023-04-01T08:51:07;100074.66;;;3.28;100.00
58843;BME280;44614;54.356;10.100;2023-04-01T08:53:54;100077.09;;;3.23;100.00
58843;BME280;44614;54.356;10.100;2023-04-01T08:56:27;100082.91;;;3.20;100.00
58843;BME280;44614;54.356;10.100;2023-04-01T08:59:00;100074.75;;;3.20;100.00
58843;BME280;44614;54.356;10.100;2023-04-01T09:06:55;100097.75;;;3.24;100.00
58843;BME280;44614;54.356;10.100;2023-04-01T09:26:30;100121.59;;;3.07;100.00
58843;BME280;44614;54.356;10.100;2023-04-01T09:29:15;100122.63;;;3.06;100.00
58843;BME280;44614;54.356;10.100;2023-04-01T09:32:05;100143.88;;;3.03;100.00
58843;BME280;44614;54.356;10.100;2023-04-01T09:34:52;100138.09;;;3.06;100.00
58843;BME280;44614;54.356;10.100;2023-04-01T09:40:18;100156.41;;;3.04;100.00
58843;BME280;44614;54.356;10.100;2023-04-01T09:45:52;100164.75;;;3.02;100.00
58843;BME280;44614;54.356;10.100;2023-04-01T09:48:59;100182.22;;;3.00;100.00
58843;BME280;44614;54.356;10.100;2023-04-01T09:51:38;100175.97;;;2.99;100.00
58843;BME280;44614;54.356;10.100;2023-04-01T09:54:29;100169.50;;;3.00;100.00
58843;BME280;44614;54.356;10.100;2023-04-01T10:13:59;100192.41;;;2.98;100.00
58843;BME280;44614;54.356;10.100;2023-04-01T10:16:45;100216.00;;;2.97;100.00
58843;BME280;44614;54.356;10.100;2023-04-01T10:22:09;100214.69;;;2.93;100.00
58843;BME280;44614;54.356;10.100;2023-04-01T10:55:10;100251.16;;;2.61;100.00
58843;BME280;44614;54.356;10.100;2023-04-01T11:06:18;100268.19;;;2.69;100.00
58843;BME280;44614;54.356;10.100;2023-04-01T11:11:52;100266.88;;;2.65;100.00
58843;BME280;44614;54.356;10.100;2023-04-01T11:14:32;100285.50;;;2.68;100.00
58843;BME280;44614;54.356;10.100;2023-04-01T11:22:58;100299.88;;;2.69;100.00
58843;BME280;44614;54.356;10.100;2023-04-01T11:28:21;100296.13;;;2.70;100.00
58843;BME280;44614;54.356;10.100;2023-04-01T11:39:13;100304.66;;;2.82;100.00
58843;BME280;44614;54.356;10.100;2023-04-01T11:42:01;100321.59;;;2.84;100.00
58843;BME280;44614;54.356;10.100;2023-04-01T11:44:35;100340.59;;;2.84;100.00
58843;BME280;44614;54.356;10.100;2023-04-01T11:50:03;100334.78;;;2.87;100.00
58843;BME280;44614;54.356;10.100;2023-04-01T12:01:03;100344.25;;;2.91;100.00
58843;BME280;44614;54.356;10.100;2023-04-01T12:14:21;100365.13;;;3.05;100.00
58843;BME280;44614;54.356;10.100;2023-04-01T12:22:48;100372.84;;;3.08;100.00
58843;BME280;44614;54.356;10.100;2023-04-01T12:31:06;100387.34;;;3.01;100.00
58843;BME280;44614;54.356;10.100;2023-04-01T12:37:12;100399.25;;;3.00;100.00
58843;BME280;44614;54.356;10.100;2023-04-01T12:45:01;100401.03;;;3.07;100.00
58843;BME280;44614;54.356;10.100;2023-04-01T13:02:50;100463.78;;;3.04;100.00
58843;BME280;44614;54.356;10.100;2023-04-01T13:11:36;100463.88;;;2.96;100.00
58843;BME280;44614;54.356;10.100;2023-04-01T13:17:17;100463.56;;;2.91;100.00
58843;BME280;44614;54.356;10.100;2023-04-01T13:27:37;100469.56;;;2.86;100.00
58843;BME280;44614;54.356;10.100;2023-04-01T13:39:01;100488.06;;;2.83;100.00
58843;BME280;44614;54.356;10.100;2023-04-01T13:44:22;100473.88;;;2.73;100.00
58843;BME280;44614;54.356;10.100;2023-04-01T13:55:26;100589.06;;;2.85;100.00
58843;BME280;44614;54.356;10.100;2023-04-01T14:00:51;100534.25;;;2.89;100.00
58843;BME280;44614;54.356;10.100;2023-04-01T14:26:19;100545.00;;;2.83;99.96
58843;BME280;44614;54.356;10.100;2023-04-01T14:31:50;100565.97;;;2.89;99.46
58843;BME280;44614;54.356;10.100;2023-04-01T14:40:12;100582.88;;;2.99;95.81
58843;BME280;44614;54.356;10.100;2023-04-01T14:42:59;100596.91;;;3.03;95.01
58843;BME280;44614;54.356;10.100;2023-04-01T14:51:18;100592.88;;;3.22;95.54
58843;BME280;44614;54.356;10.100;2023-04-01T14:54:16;100600.34;;;3.20;94.00
58843;BME280;44614;54.356;10.100;2023-04-01T14:56:50;100585.16;;;3.10;94.71
58843;BME280;44614;54.356;10.100;2023-04-01T15:02:01;100607.50;;;3.12;94.84
58843;BME280;44614;54.356;10.100;2023-04-01T15:13:17;100636.03;;;3.08;94.25
58843;BME280;44614;54.356;10.100;2023-04-01T15:21:47;100649.31;;;3.03;93.31
58843;BME280;44614;54.356;10.100;2023-04-01T15:35:45;100657.63;;;3.02;95.70
58843;BME280;44614;54.356;10.100;2023-04-01T15:38:34;100639.75;;;2.84;95.13
58843;BME280;44614;54.356;10.100;2023-04-01T15:41:15;100666.06;;;3.07;93.38
58843;BME280;44614;54.356;10.100;2023-04-01T15:43:50;100666.06;;;3.07;93.86
58843;BME280;44614;54.356;10.100;2023-04-01T16:02:46;100700.06;;;2.95;93.05
58843;BME280;44614;54.356;10.100;2023-04-01T16:05:27;100706.31;;;2.95;91.82
58843;BME280;44614;54.356;10.100;2023-04-01T16:08:44;100714.75;;;3.00;92.46
58843;BME280;44614;54.356;10.100;2023-04-01T16:11:22;100721.84;;;3.09;92.94
58843;BME280;44614;54.356;10.100;2023-04-01T16:14:15;100719.16;;;3.09;92.04
58843;BME280;44614;54.356;10.100;2023-04-01T16:25:19;100769.22;;;2.99;87.62
58843;BME280;44614;54.356;10.100;2023-04-01T16:30:55;100759.22;;;2.91;85.79
58843;BME280;44614;54.356;10.100;2023-04-01T16:33:32;100761.44;;;2.87;85.57
58843;BME280;44614;54.356;10.100;2023-04-01T16:36:33;100745.19;;;2.87;84.73
58843;BME280;44614;54.356;10.100;2023-04-01T16:39:32;100756.34;;;2.92;84.09
58843;BME280;44614;54.356;10.100;2023-04-01T16:47:17;100777.88;;;2.86;84.75
58843;BME280;44614;54.356;10.100;2023-04-01T16:53:02;100789.06;;;2.91;85.48
58843;BME280;44614;54.356;10.100;2023-04-01T16:55:51;100795.16;;;2.93;84.21
58843;BME280;44614;54.356;10.100;2023-04-01T16:58:26;100810.06;;;2.97;82.37
58843;BME280;44614;54.356;10.100;2023-04-01T17:01:16;100818.41;;;2.87;80.25
58843;BME280;44614;54.356;10.100;2023-04-01T17:03:46;100809.09;;;2.82;82.93
58843;BME280;44614;54.356;10.100;2023-04-01T17:09:28;100801.66;;;2.59;81.38
58843;BME280;44614;54.356;10.100;2023-04-01T17:12:02;100840.63;;;2.83;84.06
58843;BME280;44614;54.356;10.100;2023-04-01T17:17:26;100850.28;;;2.77;85.39
58843;BME280;44614;54.356;10.100;2023-04-01T17:20:31;100876.59;;;2.68;78.95
58843;BME280;44614;54.356;10.100;2023-04-01T17:23:24;100871.69;;;2.64;78.61
58843;BME280;44614;54.356;10.100;2023-04-01T17:26:04;100881.69;;;2.63;79.30
58843;BME280;44614;54.356;10.100;2023-04-01T17:39:41;100900.81;;;2.46;81.79
58843;BME280;44614;54.356;10.100;2023-04-01T17:44:54;100897.59;;;2.42;83.38
58843;BME280;44614;54.356;10.100;2023-04-01T18:15:48;100968.81;;;2.10;84.91
58843;BME280;44614;54.356;10.100;2023-04-01T18:21:29;100978.78;;;2.01;81.95
58843;BME280;44614;54.356;10.100;2023-04-01T18:24:40;100982.53;;;2.00;82.01
58843;BME280;44614;54.356;10.100;2023-04-01T18:27:24;100999.78;;;1.99;83.78
58843;BME280;44614;54.356;10.100;2023-04-01T18:30:11;100993.00;;;1.95;82.60
58843;BME280;44614;54.356;10.100;2023-04-01T18:32:52;100999.41;;;1.94;84.28
58843;BME280;44614;54.356;10.100;2023-04-01T18:35:41;100996.03;;;1.92;84.98
58843;BME280;44614;54.356;10.100;2023-04-01T18:38:15;101006.03;;;1.91;86.61
58843;BME280;44614;54.356;10.100;2023-04-01T18:41:13;101003.47;;;1.90;85.84
58843;BME280;44614;54.356;10.100;2023-04-01T18:46:21;100996.97;;;1.75;85.46
58843;BME280;44614;54.356;10.100;2023-04-01T18:49:13;101039.16;;;1.85;85.05
58843;BME280;44614;54.356;10.100;2023-04-01T18:51:48;101015.59;;;1.78;86.72
58843;BME280;44614;54.356;10.100;2023-04-01T18:54:17;101032.06;;;1.84;86.04
58843;BME280;44614;54.356;10.100;2023-04-01T18:56:47;101035.25;;;1.80;86.68
58843;BME280;44614;54.356;10.100;2023-04-01T18:59:39;101045.06;;;1.81;85.51
58843;BME280;44614;54.356;10.100;2023-04-01T19:04:45;101050.81;;;1.78;87.08
58843;BME280;44614;54.356;10.100;2023-04-01T19:10:25;101067.22;;;1.76;89.70
58843;BME280;44614;54.356;10.100;2023-04-01T19:13:19;101056.53;;;1.75;90.05
58843;BME280;44614;54.356;10.100;2023-04-01T19:21:56;101083.06;;;1.71;90.99
58843;BME280;44614;54.356;10.100;2023-04-01T19:24:45;101085.78;;;1.71;91.52
58843;BME280;44614;54.356;10.100;2023-04-01T19:27:28;101087.81;;;1.69;91.54
58843;BME280;44614;54.356;10.100;2023-04-01T19:32:55;101068.38;;;1.48;91.72
58843;BME280;44614;54.356;10.100;2023-04-01T19:35:40;101104.19;;;1.67;92.46
58843;BME280;44614;54.356;10.100;2023-04-01T19:41:22;101109.47;;;1.69;92.61
58843;BME280;44614;54.356;10.100;2023-04-01T19:44:06;101124.16;;;1.66;91.98
58843;BME280;44614;54.356;10.100;2023-04-01T19:46:44;101111.66;;;1.65;92.43
58843;BME280;44614;54.356;10.100;2023-04-01T19:50:10;101129.03;;;1.63;92.52
58843;BME280;44614;54.356;10.100;2023-04-01T19:52:28;101126.19;;;1.64;92.52
58843;BME280;44614;54.356;10.100;2023-04-01T19:55:29;101132.59;;;1.63;92.06
58843;BME280;44614;54.356;10.100;2023-04-01T19:58:39;101135.31;;;1.63;92.03
58843;BME280;44614;54.356;10.100;2023-04-01T20:01:03;101140.06;;;1.61;92.43
58843;BME280;44614;54.356;10.100;2023-04-01T20:03:50;101144.28;;;1.64;92.21
58843;BME280;44614;54.356;10.100;2023-04-01T20:07:09;101153.28;;;1.64;91.92
58843;BME280;44614;54.356;10.100;2023-04-01T20:09:58;101150.88;;;1.61;92.23
58843;BME280;44614;54.356;10.100;2023-04-01T20:15:33;101146.91;;;1.56;91.55
58843;BME280;44614;54.356;10.100;2023-04-01T20:18:05;101161.41;;;1.64;90.19
58843;BME280;44614;54.356;10.100;2023-04-01T20:20:37;101172.91;;;1.66;89.36
58843;BME280;44614;54.356;10.100;2023-04-01T20:24:29;101173.63;;;1.68;88.38
58843;BME280;44614;54.356;10.100;2023-04-01T20:26:42;101182.09;;;1.74;87.78
58843;BME280;44614;54.356;10.100;2023-04-01T20:32:15;101195.63;;;1.74;86.97
58843;BME280;44614;54.356;10.100;2023-04-01T20:37:40;101212.06;;;1.72;87.26
58843;BME280;44614;54.356;10.100;2023-04-01T20:45:37;101223.56;;;1.74;87.01
58843;BME280;44614;54.356;10.100;2023-04-01T20:51:08;101203.31;;;1.60;86.48
58843;BME280;44614;54.356;10.100;2023-04-01T20:54:17;101227.97;;;1.75;85.41
58843;BME280;44614;54.356;10.100;2023-04-01T20:57:00;101220.31;;;1.70;85.27
58843;BME280;44614;54.356;10.100;2023-04-01T21:08:14;101242.75;;;1.81;83.97
58843;BME280;44614;54.356;10.100;2023-04-01T21:10:50;101248.94;;;1.73;82.43
58843;BME280;44614;54.356;10.100;2023-04-01T21:18:54;101266.09;;;1.82;83.87
58843;BME280;44614;54.356;10.100;2023-04-01T21:21:47;101276.56;;;1.77;83.56
58843;BME280;44614;54.356;10.100;2023-04-01T21:27:30;101271.84;;;1.79;83.80
58843;BME280;44614;54.356;10.100;2023-04-01T21:33:00;101290.09;;;1.77;83.54
58843;BME280;44614;54.356;10.100;2023-04-01T21:39:02;101297.22;;;1.78;84.48
58843;BME280;44614;54.356;10.100;2023-04-01T21:52:22;101325.63;;;1.74;83.43
58843;BME280;44614;54.356;10.100;2023-04-01T22:05:35;101343.97;;;1.80;84.05